createdAt,value
2023-01-02T00:01:15.467Z,27.88
2023-01-02T00:03:42.823Z,30.75
2023-01-02T00:06:10.053Z,28.80
2023-01-02T00:08:38.638Z,27.63
2023-01-02T00:11:05.929Z,24.33
2023-01-02T00:13:33.027Z,31.27
2023-01-02T00:16:00.271Z,32.65
2023-01-02T00:18:27.447Z,27.65
2023-01-02T00:20:54.605Z,25.23
2023-01-02T00:23:22.003Z,30.20
2023-01-02T00:25:49.197Z,30.05
2023-01-02T00:28:16.394Z,27.05
2023-01-02T00:30:43.630Z,37.97
2023-01-02T00:33:10.823Z,114.60
2023-01-02T00:35:38.696Z,91.63
2023-01-02T00:38:06.472Z,58.88
2023-01-02T00:40:34.583Z,41.20
2023-01-02T00:43:02.092Z,42.20
2023-01-02T00:45:29.396Z,39.97
2023-01-02T00:47:56.574Z,39.00
2023-01-02T00:50:23.839Z,32.58
2023-01-02T00:52:50.991Z,41.30
2023-01-02T00:55:18.158Z,34.45
2023-01-02T00:57:45.505Z,30.08
2023-01-02T01:00:18.389Z,22.15
2023-01-02T01:02:49.024Z,19.67
2023-01-02T01:05:16.429Z,23.88
2023-01-02T01:07:43.694Z,24.17
2023-01-02T01:10:10.880Z,22.23
2023-01-02T01:12:38.022Z,24.70
2023-01-02T01:15:06.627Z,20.95
2023-01-02T01:17:33.935Z,22.43
2023-01-02T01:20:01.251Z,26.10
2023-01-02T01:22:28.440Z,22.63
2023-01-02T01:24:55.554Z,30.50
2023-01-02T01:27:22.756Z,24.55
2023-01-02T01:29:49.972Z,27.30
2023-01-02T01:32:17.139Z,21.00
2023-01-02T01:34:44.629Z,22.00
2023-01-02T01:37:12.340Z,26.25
2023-01-02T01:39:39.475Z,20.25
2023-01-02T01:42:09.254Z,22.92
2023-01-02T01:44:54.170Z,20.85
2023-01-02T01:47:49.280Z,19.83
2023-01-02T01:50:23.365Z,21.73
2023-01-02T01:52:57.307Z,28.42
2023-01-02T01:55:42.832Z,28.67
2023-01-02T01:58:31.261Z,26.23
2023-01-02T02:00:58.943Z,27.35
2023-01-02T02:03:30.412Z,26.23
2023-01-02T02:05:59.989Z,24.20
2023-01-02T02:11:08.978Z,23.40
2023-01-02T02:13:36.276Z,27.02
2023-01-02T02:16:17.178Z,24.13
2023-01-02T02:19:25.635Z,26.10
2023-01-02T02:22:19.759Z,22.08
2023-01-02T02:25:19.355Z,19.65
2023-01-02T02:30:46.961Z,52.13
2023-01-02T02:33:59.154Z,63.17
2023-01-02T02:36:40.453Z,59.35
2023-01-02T02:39:21.342Z,42.65
2023-01-02T02:42:11.014Z,31.33
2023-01-02T02:45:03.050Z,27.97
2023-01-02T02:48:02.816Z,27.70
2023-01-02T02:50:50.153Z,26.67
2023-01-02T02:53:46.726Z,20.60
2023-01-02T02:56:16.102Z,17.90
2023-01-02T02:58:44.104Z,23.30
2023-01-02T03:01:17.646Z,19.40
2023-01-02T03:03:45.698Z,17.33
2023-01-02T03:06:21.435Z,21.23
2023-01-02T03:09:43.205Z,19.17
2023-01-02T03:12:53.811Z,19.77
2023-01-02T03:15:51.599Z,20.35
2023-01-02T03:18:37.395Z,26.27
2023-01-02T03:21:14.104Z,27.73
2023-01-02T03:23:48.243Z,27.50
2023-01-02T03:26:25.158Z,22.92
2023-01-02T03:28:59.654Z,37.95
2023-01-02T03:31:30.727Z,51.08
2023-01-02T03:34:13.324Z,47.47
2023-01-02T03:36:44.340Z,37.42
2023-01-02T03:39:21.361Z,31.60
2023-01-02T03:42:02.940Z,28.92
2023-01-02T03:44:45.280Z,25.52
2023-01-02T03:47:37.182Z,24.20
2023-01-02T03:50:15.815Z,23.95
2023-01-02T03:52:43.234Z,59.13
2023-01-02T03:55:10.747Z,49.63
2023-01-02T03:57:43.835Z,61.63
2023-01-02T04:00:16.402Z,51.40
2023-01-02T04:02:53.422Z,49.20
2023-01-02T04:05:47.428Z,39.70
2023-01-02T04:08:30.415Z,34.13
2023-01-02T04:11:00.600Z,21.30
2023-01-02T04:13:43.360Z,18.67
2023-01-02T04:16:18.449Z,15.85
2023-01-02T04:19:12.378Z,14.98
2023-01-02T04:21:42.844Z,18.90
2023-01-02T04:24:20.154Z,13.57
2023-01-02T04:27:07.506Z,14.02
2023-01-02T04:29:35.161Z,14.27
2023-01-02T04:32:19.869Z,16.35
2023-01-02T04:34:48.703Z,17.10
2023-01-02T04:37:28.829Z,17.15
2023-01-02T04:40:01.971Z,21.88
2023-01-02T04:42:29.260Z,20.95
2023-01-02T04:44:57.097Z,20.20
2023-01-02T04:47:24.347Z,20.30
2023-01-02T04:49:51.620Z,17.20
2023-01-02T04:52:18.878Z,22.45
2023-01-02T04:54:46.267Z,18.48
2023-01-02T04:57:13.520Z,24.70
2023-01-02T04:59:41.009Z,27.10
2023-01-02T05:02:08.307Z,23.35
2023-01-02T05:04:35.606Z,22.50
2023-01-02T05:07:03.685Z,24.40
2023-01-02T05:09:30.884Z,26.10
2023-01-02T05:11:58.093Z,30.02
2023-01-02T05:14:25.410Z,26.65
2023-01-02T05:16:52.728Z,23.55
2023-01-02T05:19:19.917Z,24.17
2023-01-02T05:22:06.077Z,26.95
2023-01-02T05:24:33.365Z,39.40
2023-01-02T05:27:00.817Z,30.80
2023-01-02T05:29:28.858Z,35.47
2023-01-02T05:31:56.022Z,31.15
2023-01-02T05:34:23.373Z,25.13
2023-01-02T05:36:50.501Z,25.05
2023-01-02T05:39:17.713Z,26.58
2023-01-02T05:41:44.948Z,25.42
2023-01-02T05:44:12.191Z,34.50
2023-01-02T05:46:39.916Z,25.67
2023-01-02T05:49:08.629Z,30.23
2023-01-02T05:51:36.639Z,27.97
2023-01-02T05:54:04.213Z,37.45
2023-01-02T05:56:31.731Z,48.17
2023-01-02T05:58:58.969Z,35.10
2023-01-02T06:01:30.174Z,47.75
2023-01-02T06:03:59.448Z,48.38
2023-01-02T06:06:35.384Z,47.25
2023-01-02T06:09:04.868Z,36.55
2023-01-02T06:11:33.275Z,30.35
2023-01-02T06:14:00.855Z,43.97
2023-01-02T06:16:28.104Z,44.78
2023-01-02T06:18:55.645Z,41.55
2023-01-02T06:21:23.421Z,34.15
2023-01-02T06:23:56.453Z,31.75
2023-01-02T06:26:29.868Z,30.63
2023-01-02T06:29:00.093Z,39.47
2023-01-02T06:31:28.986Z,28.73
2023-01-02T06:34:01.511Z,30.67
2023-01-02T06:36:32.148Z,29.95
2023-01-02T06:38:59.376Z,24.63
2023-01-02T06:41:26.845Z,24.27
2023-01-02T06:43:54.638Z,25.58
2023-01-02T06:46:23.642Z,22.52
2023-01-02T06:48:51.422Z,26.63
2023-01-02T06:51:21.683Z,26.95
2023-01-02T06:53:49.743Z,28.92
2023-01-02T06:56:19.812Z,30.98
2023-01-02T06:58:47.151Z,32.75
2023-01-02T07:01:21.428Z,27.95
2023-01-02T07:03:49.313Z,22.58
2023-01-02T07:06:21.387Z,22.83
2023-01-02T07:08:48.896Z,23.50
2023-01-02T07:11:19.987Z,28.42
2023-01-02T07:13:49.451Z,24.15
2023-01-02T07:16:18.949Z,43.42
2023-01-02T07:18:46.309Z,54.95
2023-01-02T07:21:15.884Z,40.95
2023-01-02T07:23:43.337Z,32.03
2023-01-02T07:26:11.761Z,30.65
2023-01-02T07:28:39.646Z,28.05
2023-01-02T07:31:12.686Z,28.15
2023-01-02T07:33:41.868Z,28.20
2023-01-02T07:36:16.851Z,30.33
2023-01-02T07:38:48.678Z,31.08
2023-01-02T07:41:19.504Z,29.35
2023-01-02T07:43:47.566Z,30.60
2023-01-02T07:46:17.648Z,27.58
2023-01-02T07:48:45.434Z,33.75
2023-01-02T07:51:14.301Z,28.98
2023-01-02T07:53:41.991Z,27.92
2023-01-02T07:56:09.675Z,27.55
2023-01-02T07:58:37.497Z,29.23
2023-01-02T08:01:12.790Z,28.42
2023-01-02T08:03:40.491Z,29.88
2023-01-02T08:06:14.838Z,31.05
2023-01-02T08:08:42.845Z,33.55
2023-01-02T08:11:16.510Z,36.40
2023-01-02T08:13:44.183Z,31.17
2023-01-02T08:16:18.430Z,41.92
2023-01-02T08:18:46.745Z,29.17
2023-01-02T08:21:14.979Z,37.58
2023-01-02T08:23:42.188Z,28.48
2023-01-02T08:26:11.244Z,25.23
2023-01-02T08:28:40.495Z,27.63
2023-01-02T08:31:20.408Z,27.33
2023-01-02T08:33:48.921Z,38.78
2023-01-02T08:36:16.210Z,31.38
2023-01-02T08:38:43.652Z,25.95
2023-01-02T08:41:11.120Z,23.42
2023-01-02T08:43:38.684Z,23.75
2023-01-02T08:46:07.600Z,22.58
2023-01-02T08:48:35.872Z,20.80
2023-01-02T08:51:04.052Z,32.08
2023-01-02T08:53:31.400Z,20.83
2023-01-02T08:56:24.476Z,27.20
2023-01-02T08:59:05.175Z,20.20
2023-01-02T09:01:33.277Z,24.83
2023-01-02T09:04:06.261Z,31.08
2023-01-02T09:06:38.640Z,21.05
2023-01-02T09:09:11.584Z,23.30
2023-01-02T09:11:49.752Z,24.00
2023-01-02T09:14:19.781Z,25.15
2023-01-02T09:16:48.382Z,26.30
2023-01-02T09:19:15.996Z,21.55
2023-01-02T09:21:43.293Z,22.52
2023-01-02T09:24:10.849Z,22.88
2023-01-02T09:26:41.194Z,30.38
2023-01-02T09:29:10.815Z,22.80
2023-01-02T09:31:39.013Z,19.63
2023-01-02T09:34:06.659Z,23.30
2023-01-02T09:36:34.180Z,24.83
2023-01-02T09:39:03.331Z,23.25
2023-01-02T09:41:38.963Z,24.33
2023-01-02T09:44:49.176Z,21.55
2023-01-02T09:47:21.695Z,28.58
2023-01-02T09:50:05.745Z,22.63
2023-01-02T09:52:42.856Z,23.30
2023-01-02T09:55:32.090Z,21.33
2023-01-02T09:58:15.548Z,26.48
2023-01-02T10:00:46.110Z,24.52
2023-01-02T10:03:13.542Z,25.33
2023-01-02T10:05:40.777Z,27.48
2023-01-02T10:08:37.378Z,27.40
2023-01-02T10:11:26.189Z,25.05
2023-01-02T10:14:53.869Z,22.02
2023-01-02T10:17:22.831Z,24.70
2023-01-02T10:19:57.874Z,23.58
2023-01-02T10:22:50.411Z,23.70
2023-01-02T10:25:35.779Z,27.15
2023-01-02T10:28:27.592Z,25.38
2023-01-02T10:31:07.648Z,24.38
2023-01-02T10:34:00.588Z,19.17
2023-01-02T10:36:41.033Z,18.30
2023-01-02T10:39:18.223Z,18.52
2023-01-02T10:41:49.925Z,17.13
2023-01-02T10:44:39.349Z,18.13
2023-01-02T10:47:39.047Z,18.33
2023-01-02T10:50:14.749Z,10.63
2023-01-02T10:53:30.437Z,10.63
2023-01-02T10:56:02.871Z,15.02
2023-01-02T10:58:33.920Z,13.63
2023-01-02T11:01:21.170Z,12.30
2023-01-02T11:04:11.174Z,5.82
2023-01-02T11:07:04.665Z,12.50
2023-01-02T11:09:35.927Z,9.43
2023-01-02T11:12:12.759Z,9.80
2023-01-02T11:14:40.333Z,16.05
2023-01-02T11:17:19.618Z,10.23
2023-01-02T11:22:22.267Z,6.97
2023-01-02T11:25:01.156Z,10.10
2023-01-02T11:27:42.985Z,5.85
2023-01-02T11:30:29.995Z,6.03
2023-01-02T11:33:23.880Z,3.95
2023-01-02T11:36:13.683Z,5.60
2023-01-02T11:38:43.879Z,6.47
2023-01-02T11:42:22.157Z,6.20
2023-01-02T11:45:16.519Z,7.90
2023-01-02T11:47:53.385Z,5.70
2023-01-02T11:50:24.426Z,8.30
2023-01-02T11:53:07.131Z,7.28
2023-01-02T11:55:49.639Z,8.55
2023-01-02T11:58:43.307Z,4.10
2023-01-02T12:01:32.284Z,5.80
2023-01-02T12:03:59.476Z,2.97
2023-01-02T12:06:49.213Z,4.57
2023-01-02T12:09:51.777Z,3.03
2023-01-02T12:12:53.526Z,3.47
2023-01-02T12:15:52.118Z,5.88
2023-01-02T12:18:44.579Z,2.47
2023-01-02T12:21:25.580Z,6.43
2023-01-02T12:24:13.215Z,2.80
2023-01-02T12:26:55.969Z,3.67
2023-01-02T12:29:47.861Z,2.25
2023-01-02T12:32:36.657Z,3.38
2023-01-02T12:35:17.655Z,3.38
2023-01-02T12:37:55.644Z,7.32
2023-01-02T12:40:52.327Z,3.63
2023-01-02T12:43:59.492Z,3.92
2023-01-02T12:47:06.453Z,3.80
2023-01-02T12:49:43.335Z,3.40
2023-01-02T12:52:25.436Z,2.78
2023-01-02T12:55:15.408Z,2.95
2023-01-02T12:58:18.666Z,6.88
2023-01-02T13:00:57.230Z,5.15
2023-01-02T13:03:33.431Z,10.23
2023-01-02T13:06:46.046Z,18.13
2023-01-02T13:09:10.715Z,4.47
2023-01-02T13:14:23.216Z,3.60
2023-01-02T13:17:00.810Z,9.13
2023-01-02T13:19:47.825Z,10.90
2023-01-02T13:22:22.461Z,6.97
2023-01-02T13:24:50.734Z,6.65
2023-01-02T13:27:18.015Z,8.60
2023-01-02T13:29:45.877Z,8.50
2023-01-02T13:32:14.994Z,9.18
2023-01-02T13:34:53.462Z,8.98
2023-01-02T13:37:25.259Z,6.88
2023-01-02T13:40:01.771Z,9.10
2023-01-02T13:42:53.306Z,7.15
2023-01-02T13:45:30.671Z,12.50
2023-01-02T13:48:25.962Z,12.55
2023-01-02T13:51:20.452Z,17.58
2023-01-02T13:53:50.722Z,9.77
2023-01-02T13:56:26.727Z,10.13
2023-01-02T13:58:57.169Z,11.15
2023-01-02T14:01:40.147Z,18.02
2023-01-02T14:04:07.603Z,12.27
2023-01-02T14:06:47.230Z,16.70
2023-01-02T14:09:20.383Z,7.05
2023-01-02T14:11:59.191Z,5.13
2023-01-02T14:14:47.729Z,9.00
2023-01-02T14:17:36.748Z,11.70
2023-01-02T14:23:03.705Z,5.05
2023-01-02T14:25:32.225Z,4.57
2023-01-02T14:28:06.187Z,10.43
2023-01-02T14:30:41.473Z,6.57
2023-01-02T14:33:23.050Z,8.80
2023-01-02T14:35:53.829Z,10.98
2023-01-02T14:38:28.239Z,8.43
2023-01-02T14:41:18.508Z,12.23
2023-01-02T14:43:47.832Z,10.45
2023-01-02T14:49:25.253Z,12.52
2023-01-02T14:51:59.945Z,10.68
2023-01-02T14:54:39.408Z,10.55
2023-01-02T14:57:28.035Z,7.45
2023-01-02T14:59:58.401Z,11.98
2023-01-02T15:02:37.394Z,12.35
2023-01-02T15:05:13.172Z,73.85
2023-01-02T15:07:46.894Z,56.90
2023-01-02T15:10:17.478Z,36.00
2023-01-02T15:13:12.935Z,19.85
2023-01-02T15:15:52.895Z,25.33
2023-01-02T15:18:24.668Z,14.32
2023-01-02T15:21:03.909Z,19.15
2023-01-02T15:26:31.686Z,58.72
2023-01-02T15:28:56.509Z,32.67
2023-01-02T15:31:24.126Z,38.30
2023-01-02T15:33:56.094Z,36.80
2023-01-02T15:36:36.082Z,38.60
2023-01-02T15:39:16.664Z,43.83
2023-01-02T15:41:50.474Z,81.40
2023-01-02T15:44:52.798Z,154.98
2023-01-02T15:47:25.593Z,130.82
2023-01-02T15:49:56.797Z,87.93
2023-01-02T15:52:29.422Z,68.88
2023-01-02T15:54:57.176Z,86.35
2023-01-02T15:57:33.888Z,94.50
2023-01-02T16:00:01.724Z,39.80
2023-01-02T16:02:43.743Z,55.88
2023-01-02T16:05:16.306Z,69.93
2023-01-02T16:07:53.392Z,56.42
2023-01-02T16:10:27.931Z,63.10
2023-01-02T16:13:28.759Z,65.82
2023-01-02T16:16:15.517Z,87.30
2023-01-02T16:18:53.667Z,60.97
2023-01-02T16:21:27.813Z,43.47
2023-01-02T16:23:55.369Z,39.38
2023-01-02T16:26:31.495Z,45.28
2023-01-02T16:28:58.719Z,105.82
2023-01-02T16:31:26.153Z,130.57
2023-01-02T16:34:14.649Z,144.45
2023-01-02T16:36:42.334Z,108.82
2023-01-02T16:40:18.716Z,82.18
2023-01-02T16:43:08.441Z,61.20
2023-01-02T16:45:38.590Z,71.97
2023-01-02T16:48:11.342Z,61.83
2023-01-02T16:50:44.978Z,56.05
2023-01-02T16:53:19.100Z,50.80
2023-01-02T16:55:46.592Z,57.17
2023-01-02T16:58:13.876Z,63.63
2023-01-02T17:00:43.609Z,100.95
2023-01-02T17:03:29.436Z,96.22
2023-01-02T17:06:06.177Z,79.50
2023-01-02T17:08:33.694Z,60.55
2023-01-02T17:11:01.276Z,60.97
2023-01-02T17:13:29.670Z,75.28
2023-01-02T17:15:57.746Z,80.53
2023-01-02T17:18:25.385Z,92.07
2023-01-02T17:20:52.818Z,105.13
2023-01-02T17:23:20.514Z,95.03
2023-01-02T17:25:47.951Z,72.97
2023-01-02T17:28:15.740Z,56.10
2023-01-02T17:30:46.299Z,45.78
2023-01-02T17:33:14.300Z,45.17
2023-01-02T17:35:45.793Z,48.67
2023-01-02T17:38:13.242Z,62.28
2023-01-02T17:40:40.599Z,61.05
2023-01-02T17:43:07.983Z,52.67
2023-01-02T17:45:35.425Z,53.80
2023-01-02T17:48:10.411Z,42.78
2023-01-02T17:50:39.569Z,42.47
2023-01-02T17:53:08.149Z,43.15
2023-01-02T17:55:35.500Z,38.33
2023-01-02T17:58:03.639Z,44.72
2023-01-02T18:00:31.143Z,92.45
2023-01-02T18:02:58.547Z,108.50
2023-01-02T18:05:25.889Z,112.47
2023-01-02T18:07:53.133Z,119.50
2023-01-02T18:10:21.466Z,79.78
2023-01-02T18:12:50.282Z,78.85
2023-01-02T18:15:21.464Z,76.28
2023-01-02T18:17:49.751Z,86.53
2023-01-02T18:20:20.274Z,81.28
2023-01-02T18:22:50.755Z,124.57
2023-01-02T18:25:26.518Z,81.82
2023-01-02T18:28:25.696Z,56.15
2023-01-02T18:33:26.950Z,60.72
2023-01-02T18:36:01.983Z,64.55
2023-01-02T18:38:35.221Z,90.40
2023-01-02T18:41:20.852Z,96.60
2023-01-02T18:43:53.681Z,92.97
2023-01-02T18:47:03.413Z,92.40
2023-01-02T18:49:29.295Z,88.80
2023-01-02T18:52:23.718Z,103.07
2023-01-02T18:55:26.480Z,113.47
2023-01-02T18:58:03.118Z,100.43
2023-01-02T19:00:34.097Z,103.95
2023-01-02T19:03:08.547Z,81.68
2023-01-02T19:05:46.169Z,75.50
2023-01-02T19:08:45.408Z,69.78
2023-01-02T19:11:50.868Z,60.80
2023-01-02T19:14:40.586Z,47.58
2023-01-02T19:17:28.150Z,60.05
2023-01-02T19:19:56.109Z,69.38
2023-01-02T19:22:32.802Z,74.78
2023-01-02T19:25:19.158Z,53.95
2023-01-02T19:27:46.790Z,52.40
2023-01-02T19:30:37.980Z,66.38
2023-01-02T19:33:42.784Z,71.68
2023-01-02T19:36:39.610Z,66.80
2023-01-02T19:39:31.921Z,79.47
2023-01-02T19:42:17.912Z,110.53
2023-01-02T19:44:53.902Z,93.03
2023-01-02T19:47:27.491Z,74.47
2023-01-02T19:49:55.127Z,86.22
2023-01-02T19:52:23.395Z,97.53
2023-01-02T19:54:52.166Z,80.40
2023-01-02T19:57:20.271Z,110.05
2023-01-02T19:59:51.030Z,111.88
2023-01-02T20:02:22.115Z,91.95
2023-01-02T20:04:51.724Z,102.60
2023-01-02T20:09:47.314Z,97.30
2023-01-02T20:12:29.853Z,102.88
2023-01-02T20:15:00.823Z,123.65
2023-01-02T20:17:29.762Z,118.30
2023-01-02T20:19:57.471Z,123.97
2023-01-02T20:22:27.173Z,103.57
2023-01-02T20:24:55.519Z,140.80
2023-01-02T20:27:23.526Z,114.57
2023-01-02T20:29:51.704Z,103.85
2023-01-02T20:32:18.926Z,104.63
2023-01-02T20:34:46.407Z,92.00
2023-01-02T20:37:13.694Z,97.72
2023-01-02T20:39:41.084Z,112.97
2023-01-02T20:42:13.408Z,133.15
2023-01-02T20:44:42.215Z,139.93
2023-01-02T20:47:09.793Z,146.55
2023-01-02T20:49:38.119Z,140.20
2023-01-02T20:52:06.580Z,115.57
2023-01-02T20:54:33.821Z,110.10
2023-01-02T20:57:01.485Z,98.13
2023-01-02T20:59:28.846Z,70.72
2023-01-02T21:01:56.465Z,57.72
2023-01-02T21:04:32.512Z,55.40
2023-01-02T21:07:05.230Z,42.60
2023-01-02T21:09:32.780Z,38.60
2023-01-02T21:12:00.041Z,44.08
2023-01-02T21:14:30.063Z,49.78
2023-01-02T21:17:01.187Z,56.72
2023-01-02T21:19:28.628Z,45.70
2023-01-02T21:21:55.936Z,47.58
2023-01-02T21:24:23.204Z,56.50
2023-01-02T21:26:50.703Z,109.97
2023-01-02T21:29:17.881Z,74.53
2023-01-02T21:31:45.145Z,61.42
2023-01-02T21:34:13.209Z,46.95
2023-01-02T21:36:40.449Z,48.50
2023-01-02T21:39:09.129Z,48.92
2023-01-02T21:41:55.163Z,43.85
2023-01-02T21:44:22.453Z,46.08
2023-01-02T21:46:49.786Z,56.53
2023-01-02T21:49:17.077Z,58.50
2023-01-02T21:51:44.502Z,56.67
2023-01-02T21:54:12.040Z,54.35
2023-01-02T21:56:39.390Z,53.08
2023-01-02T21:59:06.610Z,62.38
2023-01-02T22:01:34.064Z,53.75
2023-01-02T22:04:01.437Z,52.15
2023-01-02T22:06:33.478Z,50.85
2023-01-02T22:09:01.331Z,53.05
2023-01-02T22:11:47.454Z,60.15
2023-01-02T22:14:14.723Z,48.88
2023-01-02T22:16:42.053Z,52.55
2023-01-02T22:19:09.406Z,54.25
2023-01-02T22:21:36.885Z,84.45
2023-01-02T22:24:04.432Z,76.05
2023-01-02T22:26:32.203Z,72.18
2023-01-02T22:28:59.569Z,52.28
2023-01-02T22:31:27.758Z,49.53
2023-01-02T22:33:56.760Z,47.92
2023-01-02T22:36:26.078Z,53.67
2023-01-02T22:39:25.769Z,50.40
2023-01-02T22:41:45.208Z,51.47
2023-01-02T22:44:22.093Z,38.13
2023-01-02T22:46:54.569Z,39.83
2023-01-02T22:49:26.444Z,47.95
2023-01-02T22:52:07.152Z,54.33
2023-01-02T22:54:34.607Z,52.67
2023-01-02T22:57:01.864Z,40.78
2023-01-02T22:59:29.078Z,46.50
2023-01-02T23:01:56.472Z,28.98
2023-01-02T23:04:25.007Z,37.95
2023-01-02T23:07:22.951Z,28.05
2023-01-02T23:09:41.256Z,26.75
2023-01-02T23:12:08.542Z,28.60
2023-01-02T23:14:36.135Z,23.85
2023-01-02T23:17:22.191Z,29.42
2023-01-02T23:19:49.909Z,24.35
2023-01-02T23:22:17.315Z,29.23
2023-01-02T23:24:44.508Z,29.60
2023-01-02T23:27:12.424Z,25.25
2023-01-02T23:29:41.205Z,26.13
2023-01-02T23:32:13.474Z,27.13
2023-01-02T23:34:41.162Z,21.50
2023-01-02T23:37:08.599Z,27.70
2023-01-02T23:39:36.382Z,23.17
2023-01-02T23:42:04.048Z,26.55
2023-01-02T23:44:31.423Z,23.48
2023-01-02T23:47:00.855Z,30.13
2023-01-02T23:49:31.472Z,24.15
2023-01-02T23:51:58.646Z,25.40
2023-01-02T23:54:25.898Z,28.92
2023-01-02T23:56:53.245Z,31.65
2023-01-02T23:59:23.109Z,30.70
